sensor_id;sensor_type;location;lat;lon;timestamp;pressure;altitude;pressure_sealevel;temperature
58929;BMP180;44713;53.378;10.022;2022-08-21T00:01:20;101394.00;;;14.90
58929;BMP180;44713;53.378;10.022;2022-08-21T00:03:46;101400.00;;;14.80
58929;BMP180;44713;53.378;10.022;2022-08-21T00:06:11;101396.00;;;14.80
58929;BMP180;44713;53.378;10.022;2022-08-21T00:08:37;101394.00;;;14.80
58929;BMP180;44713;53.378;10.022;2022-08-21T00:11:04;101387.00;;;14.80
58929;BMP180;44713;53.378;10.022;2022-08-21T00:13:29;101388.00;;;14.80
58929;BMP180;44713;53.378;10.022;2022-08-21T00:15:56;101383.00;;;14.70
58929;BMP180;44713;53.378;10.022;2022-08-21T00:18:22;101381.00;;;14.70
58929;BMP180;44713;53.378;10.022;2022-08-21T00:20:47;101383.00;;;14.70
58929;BMP180;44713;53.378;10.022;2022-08-21T00:23:13;101381.00;;;14.70
58929;BMP180;44713;53.378;10.022;2022-08-21T00:25:40;101382.00;;;14.60
58929;BMP180;44713;53.378;10.022;2022-08-21T00:28:06;101382.00;;;14.50
58929;BMP180;44713;53.378;10.022;2022-08-21T00:30:32;101384.00;;;14.50
58929;BMP180;44713;53.378;10.022;2022-08-21T00:32:58;101379.00;;;14.40
58929;BMP180;44713;53.378;10.022;2022-08-21T00:35:34;101372.00;;;14.40
58929;BMP180;44713;53.378;10.022;2022-08-21T00:38:00;101371.00;;;14.40
58929;BMP180;44713;53.378;10.022;2022-08-21T00:40:37;101372.00;;;14.40
58929;BMP180;44713;53.378;10.022;2022-08-21T00:43:06;101374.00;;;14.40
58929;BMP180;44713;53.378;10.022;2022-08-21T00:45:31;101368.00;;;14.40
58929;BMP180;44713;53.378;10.022;2022-08-21T00:47:57;101364.00;;;14.40
58929;BMP180;44713;53.378;10.022;2022-08-21T00:50:26;101368.00;;;14.40
58929;BMP180;44713;53.378;10.022;2022-08-21T00:52:53;101370.00;;;14.40
58929;BMP180;44713;53.378;10.022;2022-08-21T00:55:20;101371.00;;;14.30
58929;BMP180;44713;53.378;10.022;2022-08-21T00:57:50;101372.00;;;14.30
58929;BMP180;44713;53.378;10.022;2022-08-21T01:00:20;101371.00;;;14.30
58929;BMP180;44713;53.378;10.022;2022-08-21T01:02:46;101366.00;;;14.20
58929;BMP180;44713;53.378;10.022;2022-08-21T01:05:13;101366.00;;;14.20
58929;BMP180;44713;53.378;10.022;2022-08-21T01:07:39;101380.00;;;14.10
58929;BMP180;44713;53.378;10.022;2022-08-21T01:10:05;101369.00;;;14.10
58929;BMP180;44713;53.378;10.022;2022-08-21T01:12:31;101379.00;;;14.10
58929;BMP180;44713;53.378;10.022;2022-08-21T01:14:57;101371.00;;;14.10
58929;BMP180;44713;53.378;10.022;2022-08-21T01:17:24;101372.00;;;14.00
58929;BMP180;44713;53.378;10.022;2022-08-21T01:19:50;101371.00;;;14.10
58929;BMP180;44713;53.378;10.022;2022-08-21T01:22:16;101372.00;;;14.00
58929;BMP180;44713;53.378;10.022;2022-08-21T01:24:41;101371.00;;;14.10
58929;BMP180;44713;53.378;10.022;2022-08-21T01:27:06;101372.00;;;14.10
58929;BMP180;44713;53.378;10.022;2022-08-21T01:29:38;101371.00;;;14.10
58929;BMP180;44713;53.378;10.022;2022-08-21T01:32:11;101368.00;;;14.00
58929;BMP180;44713;53.378;10.022;2022-08-21T01:34:40;101364.00;;;14.00
58929;BMP180;44713;53.378;10.022;2022-08-21T01:37:05;101369.00;;;14.00
58929;BMP180;44713;53.378;10.022;2022-08-21T01:39:31;101370.00;;;14.00
58929;BMP180;44713;53.378;10.022;2022-08-21T01:41:56;101372.00;;;14.00
58929;BMP180;44713;53.378;10.022;2022-08-21T01:44:22;101369.00;;;13.80
58929;BMP180;44713;53.378;10.022;2022-08-21T01:46:48;101370.00;;;13.80
58929;BMP180;44713;53.378;10.022;2022-08-21T01:49:14;101369.00;;;13.80
58929;BMP180;44713;53.378;10.022;2022-08-21T01:51:40;101369.00;;;13.80
58929;BMP180;44713;53.378;10.022;2022-08-21T01:54:06;101367.00;;;13.70
58929;BMP180;44713;53.378;10.022;2022-08-21T01:56:37;101355.00;;;13.70
58929;BMP180;44713;53.378;10.022;2022-08-21T01:59:02;101356.00;;;13.60
58929;BMP180;44713;53.378;10.022;2022-08-21T02:01:28;101357.00;;;13.60
58929;BMP180;44713;53.378;10.022;2022-08-21T02:03:53;101351.00;;;13.60
58929;BMP180;44713;53.378;10.022;2022-08-21T02:06:18;101349.00;;;13.60
58929;BMP180;44713;53.378;10.022;2022-08-21T02:08:45;101349.00;;;13.70
58929;BMP180;44713;53.378;10.022;2022-08-21T02:11:10;101351.00;;;13.60
58929;BMP180;44713;53.378;10.022;2022-08-21T02:13:36;101349.00;;;13.60
58929;BMP180;44713;53.378;10.022;2022-08-21T02:16:01;101357.00;;;13.50
58929;BMP180;44713;53.378;10.022;2022-08-21T02:18:27;101349.00;;;13.50
58929;BMP180;44713;53.378;10.022;2022-08-21T02:20:52;101357.00;;;13.50
58929;BMP180;44713;53.378;10.022;2022-08-21T02:23:18;101357.00;;;13.50
58929;BMP180;44713;53.378;10.022;2022-08-21T02:25:43;101359.00;;;13.50
58929;BMP180;44713;53.378;10.022;2022-08-21T02:28:13;101356.00;;;13.50
58929;BMP180;44713;53.378;10.022;2022-08-21T02:30:42;101346.00;;;13.60
58929;BMP180;44713;53.378;10.022;2022-08-21T02:33:09;101349.00;;;13.50
58929;BMP180;44713;53.378;10.022;2022-08-21T02:35:38;101348.00;;;13.40
58929;BMP180;44713;53.378;10.022;2022-08-21T02:38:08;101348.00;;;13.40
58929;BMP180;44713;53.378;10.022;2022-08-21T02:40:36;101341.00;;;13.40
58929;BMP180;44713;53.378;10.022;2022-08-21T02:43:03;101342.00;;;13.40
58929;BMP180;44713;53.378;10.022;2022-08-21T02:45:29;101340.00;;;13.40
58929;BMP180;44713;53.378;10.022;2022-08-21T02:48:01;101338.00;;;13.40
58929;BMP180;44713;53.378;10.022;2022-08-21T02:50:33;101335.00;;;13.40
58929;BMP180;44713;53.378;10.022;2022-08-21T02:52:59;101340.00;;;13.30
58929;BMP180;44713;53.378;10.022;2022-08-21T02:55:28;101332.00;;;13.20
58929;BMP180;44713;53.378;10.022;2022-08-21T02:57:54;101330.00;;;13.10
58929;BMP180;44713;53.378;10.022;2022-08-21T03:00:21;101337.00;;;13.10
58929;BMP180;44713;53.378;10.022;2022-08-21T03:02:48;101326.00;;;13.10
58929;BMP180;44713;53.378;10.022;2022-08-21T03:05:14;101331.00;;;13.20
58929;BMP180;44713;53.378;10.022;2022-08-21T03:07:40;101330.00;;;13.10
58929;BMP180;44713;53.378;10.022;2022-08-21T03:10:06;101331.00;;;13.20
58929;BMP180;44713;53.378;10.022;2022-08-21T03:12:32;101326.00;;;13.10
58929;BMP180;44713;53.378;10.022;2022-08-21T03:14:58;101325.00;;;13.00
58929;BMP180;44713;53.378;10.022;2022-08-21T03:17:24;101315.00;;;13.10
58929;BMP180;44713;53.378;10.022;2022-08-21T03:19:50;101318.00;;;13.10
58929;BMP180;44713;53.378;10.022;2022-08-21T03:22:15;101310.00;;;13.00
58929;BMP180;44713;53.378;10.022;2022-08-21T03:24:40;101319.00;;;13.00
58929;BMP180;44713;53.378;10.022;2022-08-21T03:27:06;101311.00;;;13.00
58929;BMP180;44713;53.378;10.022;2022-08-21T03:29:31;101319.00;;;13.00
58929;BMP180;44713;53.378;10.022;2022-08-21T03:31:56;101322.00;;;13.10
58929;BMP180;44713;53.378;10.022;2022-08-21T03:34:22;101316.00;;;13.10
58929;BMP180;44713;53.378;10.022;2022-08-21T03:36:48;101318.00;;;13.10
58929;BMP180;44713;53.378;10.022;2022-08-21T03:39:15;101312.00;;;13.10
58929;BMP180;44713;53.378;10.022;2022-08-21T03:41:41;101319.00;;;13.10
58929;BMP180;44713;53.378;10.022;2022-08-21T03:44:06;101316.00;;;13.00
58929;BMP180;44713;53.378;10.022;2022-08-21T03:46:31;101309.00;;;13.00
58929;BMP180;44713;53.378;10.022;2022-08-21T03:48:57;101309.00;;;12.90
58929;BMP180;44713;53.378;10.022;2022-08-21T03:51:22;101315.00;;;13.00
58929;BMP180;44713;53.378;10.022;2022-08-21T03:53:47;101314.00;;;13.00
58929;BMP180;44713;53.378;10.022;2022-08-21T03:56:13;101307.00;;;12.90
58929;BMP180;44713;53.378;10.022;2022-08-21T03:58:38;101312.00;;;12.90
58929;BMP180;44713;53.378;10.022;2022-08-21T04:01:05;101319.00;;;12.80
58929;BMP180;44713;53.378;10.022;2022-08-21T04:03:32;101316.00;;;12.90
58929;BMP180;44713;53.378;10.022;2022-08-21T04:05:58;101317.00;;;12.80
58929;BMP180;44713;53.378;10.022;2022-08-21T04:08:24;101323.00;;;12.80
58929;BMP180;44713;53.378;10.022;2022-08-21T04:10:52;101325.00;;;12.80
58929;BMP180;44713;53.378;10.022;2022-08-21T04:13:19;101325.00;;;12.80
58929;BMP180;44713;53.378;10.022;2022-08-21T04:15:44;101322.00;;;12.80
58929;BMP180;44713;53.378;10.022;2022-08-21T04:18:10;101320.00;;;12.80
58929;BMP180;44713;53.378;10.022;2022-08-21T04:20:35;101317.00;;;12.80
58929;BMP180;44713;53.378;10.022;2022-08-21T04:23:02;101313.00;;;12.80
58929;BMP180;44713;53.378;10.022;2022-08-21T04:25:27;101319.00;;;12.70
58929;BMP180;44713;53.378;10.022;2022-08-21T04:27:53;101321.00;;;12.70
58929;BMP180;44713;53.378;10.022;2022-08-21T04:30:19;101327.00;;;12.70
58929;BMP180;44713;53.378;10.022;2022-08-21T04:32:47;101325.00;;;12.80
58929;BMP180;44713;53.378;10.022;2022-08-21T04:35:14;101328.00;;;12.70
58929;BMP180;44713;53.378;10.022;2022-08-21T04:37:40;101327.00;;;12.80
58929;BMP180;44713;53.378;10.022;2022-08-21T04:40:06;101330.00;;;12.70
58929;BMP180;44713;53.378;10.022;2022-08-21T04:42:32;101332.00;;;12.70
58929;BMP180;44713;53.378;10.022;2022-08-21T04:44:58;101325.00;;;12.80
58929;BMP180;44713;53.378;10.022;2022-08-21T04:47:23;101330.00;;;12.80
58929;BMP180;44713;53.378;10.022;2022-08-21T04:49:49;101327.00;;;12.80
58929;BMP180;44713;53.378;10.022;2022-08-21T04:52:17;101338.00;;;12.80
58929;BMP180;44713;53.378;10.022;2022-08-21T04:54:44;101337.00;;;12.90
58929;BMP180;44713;53.378;10.022;2022-08-21T04:57:11;101341.00;;;12.90
58929;BMP180;44713;53.378;10.022;2022-08-21T04:59:40;101344.00;;;12.90
58929;BMP180;44713;53.378;10.022;2022-08-21T05:02:08;101347.00;;;13.00
58929;BMP180;44713;53.378;10.022;2022-08-21T05:04:42;101345.00;;;13.10
58929;BMP180;44713;53.378;10.022;2022-08-21T05:07:13;101357.00;;;13.20
58929;BMP180;44713;53.378;10.022;2022-08-21T05:09:39;101341.00;;;13.20
58929;BMP180;44713;53.378;10.022;2022-08-21T05:12:05;101343.00;;;13.20
58929;BMP180;44713;53.378;10.022;2022-08-21T05:14:30;101346.00;;;13.30
58929;BMP180;44713;53.378;10.022;2022-08-21T05:16:56;101339.00;;;13.30
58929;BMP180;44713;53.378;10.022;2022-08-21T05:19:21;101342.00;;;13.30
58929;BMP180;44713;53.378;10.022;2022-08-21T05:21:47;101346.00;;;13.40
58929;BMP180;44713;53.378;10.022;2022-08-21T05:24:13;101338.00;;;13.50
58929;BMP180;44713;53.378;10.022;2022-08-21T05:26:39;101340.00;;;13.60
58929;BMP180;44713;53.378;10.022;2022-08-21T05:29:05;101344.00;;;13.60
58929;BMP180;44713;53.378;10.022;2022-08-21T05:31:31;101342.00;;;13.70
58929;BMP180;44713;53.378;10.022;2022-08-21T05:33:56;101348.00;;;13.80
58929;BMP180;44713;53.378;10.022;2022-08-21T05:36:22;101340.00;;;13.80
58929;BMP180;44713;53.378;10.022;2022-08-21T05:38:48;101339.00;;;13.80
58929;BMP180;44713;53.378;10.022;2022-08-21T05:41:14;101341.00;;;13.90
58929;BMP180;44713;53.378;10.022;2022-08-21T05:43:39;101342.00;;;14.00
58929;BMP180;44713;53.378;10.022;2022-08-21T05:46:06;101350.00;;;14.00
58929;BMP180;44713;53.378;10.022;2022-08-21T05:48:33;101339.00;;;14.00
58929;BMP180;44713;53.378;10.022;2022-08-21T05:51:10;101349.00;;;14.10
58929;BMP180;44713;53.378;10.022;2022-08-21T05:53:36;101344.00;;;14.10
58929;BMP180;44713;53.378;10.022;2022-08-21T05:56:03;101340.00;;;14.10
58929;BMP180;44713;53.378;10.022;2022-08-21T05:58:30;101342.00;;;14.30
58929;BMP180;44713;53.378;10.022;2022-08-21T06:00:55;101340.00;;;14.30
58929;BMP180;44713;53.378;10.022;2022-08-21T06:03:27;101342.00;;;14.30
58929;BMP180;44713;53.378;10.022;2022-08-21T06:05:53;101343.00;;;14.40
58929;BMP180;44713;53.378;10.022;2022-08-21T06:08:20;101341.00;;;14.50
58929;BMP180;44713;53.378;10.022;2022-08-21T06:10:47;101334.00;;;14.60
58929;BMP180;44713;53.378;10.022;2022-08-21T06:13:14;101339.00;;;14.70
58929;BMP180;44713;53.378;10.022;2022-08-21T06:15:40;101335.00;;;14.70
58929;BMP180;44713;53.378;10.022;2022-08-21T06:18:05;101348.00;;;14.80
58929;BMP180;44713;53.378;10.022;2022-08-21T06:20:31;101339.00;;;14.90
58929;BMP180;44713;53.378;10.022;2022-08-21T06:22:57;101344.00;;;14.90
58929;BMP180;44713;53.378;10.022;2022-08-21T06:25:23;101344.00;;;15.00
58929;BMP180;44713;53.378;10.022;2022-08-21T06:27:48;101347.00;;;14.90
58929;BMP180;44713;53.378;10.022;2022-08-21T06:30:14;101344.00;;;15.00
58929;BMP180;44713;53.378;10.022;2022-08-21T06:32:39;101337.00;;;15.00
58929;BMP180;44713;53.378;10.022;2022-08-21T06:35:06;101346.00;;;15.10
58929;BMP180;44713;53.378;10.022;2022-08-21T06:37:31;101355.00;;;15.10
58929;BMP180;44713;53.378;10.022;2022-08-21T06:39:57;101352.00;;;15.30
58929;BMP180;44713;53.378;10.022;2022-08-21T06:42:22;101350.00;;;15.30
58929;BMP180;44713;53.378;10.022;2022-08-21T06:44:48;101346.00;;;15.30
58929;BMP180;44713;53.378;10.022;2022-08-21T06:47:14;101346.00;;;15.30
58929;BMP180;44713;53.378;10.022;2022-08-21T06:49:39;101346.00;;;15.40
58929;BMP180;44713;53.378;10.022;2022-08-21T06:52:09;101345.00;;;15.50
58929;BMP180;44713;53.378;10.022;2022-08-21T06:54:35;101337.00;;;15.60
58929;BMP180;44713;53.378;10.022;2022-08-21T06:57:00;101337.00;;;15.70
58929;BMP180;44713;53.378;10.022;2022-08-21T06:59:26;101337.00;;;15.80
58929;BMP180;44713;53.378;10.022;2022-08-21T07:01:51;101336.00;;;15.80
58929;BMP180;44713;53.378;10.022;2022-08-21T07:04:17;101332.00;;;15.90
58929;BMP180;44713;53.378;10.022;2022-08-21T07:06:42;101325.00;;;16.00
58929;BMP180;44713;53.378;10.022;2022-08-21T07:09:07;101338.00;;;16.00
58929;BMP180;44713;53.378;10.022;2022-08-21T07:11:34;101323.00;;;16.00
58929;BMP180;44713;53.378;10.022;2022-08-21T07:14:00;101327.00;;;16.10
58929;BMP180;44713;53.378;10.022;2022-08-21T07:16:25;101323.00;;;16.20
58929;BMP180;44713;53.378;10.022;2022-08-21T07:18:51;101316.00;;;16.20
58929;BMP180;44713;53.378;10.022;2022-08-21T07:21:17;101323.00;;;16.30
58929;BMP180;44713;53.378;10.022;2022-08-21T07:23:45;101313.00;;;16.40
58929;BMP180;44713;53.378;10.022;2022-08-21T07:26:13;101315.00;;;16.60
58929;BMP180;44713;53.378;10.022;2022-08-21T07:28:38;101311.00;;;16.70
58929;BMP180;44713;53.378;10.022;2022-08-21T07:31:04;101307.00;;;16.80
58929;BMP180;44713;53.378;10.022;2022-08-21T07:33:32;101307.00;;;16.90
58929;BMP180;44713;53.378;10.022;2022-08-21T07:35:58;101302.00;;;17.00
58929;BMP180;44713;53.378;10.022;2022-08-21T07:38:23;101306.00;;;17.20
58929;BMP180;44713;53.378;10.022;2022-08-21T07:40:51;101298.00;;;17.20
58929;BMP180;44713;53.378;10.022;2022-08-21T07:43:17;101298.00;;;17.30
58929;BMP180;44713;53.378;10.022;2022-08-21T07:45:44;101294.00;;;17.50
58929;BMP180;44713;53.378;10.022;2022-08-21T07:48:10;101295.00;;;17.60
58929;BMP180;44713;53.378;10.022;2022-08-21T07:50:35;101285.00;;;17.70
58929;BMP180;44713;53.378;10.022;2022-08-21T07:53:01;101285.00;;;17.90
58929;BMP180;44713;53.378;10.022;2022-08-21T07:55:27;101288.00;;;18.00
58929;BMP180;44713;53.378;10.022;2022-08-21T07:57:53;101279.00;;;18.10
58929;BMP180;44713;53.378;10.022;2022-08-21T08:00:21;101287.00;;;18.20
58929;BMP180;44713;53.378;10.022;2022-08-21T08:02:49;101282.00;;;18.40
58929;BMP180;44713;53.378;10.022;2022-08-21T08:05:16;101281.00;;;18.50
58929;BMP180;44713;53.378;10.022;2022-08-21T08:07:42;101287.00;;;18.70
58929;BMP180;44713;53.378;10.022;2022-08-21T08:10:09;101278.00;;;18.90
58929;BMP180;44713;53.378;10.022;2022-08-21T08:12:35;101280.00;;;19.00
58929;BMP180;44713;53.378;10.022;2022-08-21T08:15:02;101280.00;;;19.20
58929;BMP180;44713;53.378;10.022;2022-08-21T08:17:27;101280.00;;;19.40
58929;BMP180;44713;53.378;10.022;2022-08-21T08:19:53;101271.00;;;19.70
58929;BMP180;44713;53.378;10.022;2022-08-21T08:22:21;101271.00;;;20.00
58929;BMP180;44713;53.378;10.022;2022-08-21T08:24:48;101272.00;;;20.00
58929;BMP180;44713;53.378;10.022;2022-08-21T08:27:14;101269.00;;;20.00
58929;BMP180;44713;53.378;10.022;2022-08-21T08:29:40;101274.00;;;20.10
58929;BMP180;44713;53.378;10.022;2022-08-21T08:32:06;101273.00;;;20.10
58929;BMP180;44713;53.378;10.022;2022-08-21T08:34:33;101274.00;;;20.10
58929;BMP180;44713;53.378;10.022;2022-08-21T08:36:58;101273.00;;;20.40
58929;BMP180;44713;53.378;10.022;2022-08-21T08:39:24;101273.00;;;20.70
58929;BMP180;44713;53.378;10.022;2022-08-21T08:44:33;101276.00;;;20.90
58929;BMP180;44713;53.378;10.022;2022-08-21T08:46:59;101275.00;;;21.00
58929;BMP180;44713;53.378;10.022;2022-08-21T08:49:53;101276.00;;;21.20
58929;BMP180;44713;53.378;10.022;2022-08-21T08:52:23;101263.00;;;21.40
58929;BMP180;44713;53.378;10.022;2022-08-21T08:55:21;101261.00;;;21.70
58929;BMP180;44713;53.378;10.022;2022-08-21T08:57:48;101264.00;;;21.90
58929;BMP180;44713;53.378;10.022;2022-08-21T09:00:17;101259.00;;;22.10
58929;BMP180;44713;53.378;10.022;2022-08-21T09:02:44;101263.00;;;22.20
58929;BMP180;44713;53.378;10.022;2022-08-21T09:05:20;101263.00;;;22.40
58929;BMP180;44713;53.378;10.022;2022-08-21T09:11:02;101263.00;;;22.80
58929;BMP180;44713;53.378;10.022;2022-08-21T09:16:30;101258.00;;;23.10
58929;BMP180;44713;53.378;10.022;2022-08-21T09:19:03;101254.00;;;23.10
58929;BMP180;44713;53.378;10.022;2022-08-21T09:22:07;101255.00;;;23.30
58929;BMP180;44713;53.378;10.022;2022-08-21T09:24:49;101249.00;;;23.50
58929;BMP180;44713;53.378;10.022;2022-08-21T09:27:18;101254.00;;;23.70
58929;BMP180;44713;53.378;10.022;2022-08-21T09:29:48;101248.00;;;23.80
58929;BMP180;44713;53.378;10.022;2022-08-21T09:32:21;101248.00;;;23.80
58929;BMP180;44713;53.378;10.022;2022-08-21T09:35:01;101239.00;;;23.80
58929;BMP180;44713;53.378;10.022;2022-08-21T09:37:29;101239.00;;;24.00
58929;BMP180;44713;53.378;10.022;2022-08-21T09:39:56;101246.00;;;24.10
58929;BMP180;44713;53.378;10.022;2022-08-21T09:42:30;101243.00;;;24.20
58929;BMP180;44713;53.378;10.022;2022-08-21T09:45:11;101247.00;;;24.50
58929;BMP180;44713;53.378;10.022;2022-08-21T09:47:37;101246.00;;;24.70
58929;BMP180;44713;53.378;10.022;2022-08-21T09:50:15;101249.00;;;24.70
58929;BMP180;44713;53.378;10.022;2022-08-21T09:52:48;101244.00;;;24.60
58929;BMP180;44713;53.378;10.022;2022-08-21T09:55:18;101248.00;;;24.70
58929;BMP180;44713;53.378;10.022;2022-08-21T09:58:04;101253.00;;;25.00
58929;BMP180;44713;53.378;10.022;2022-08-21T10:00:32;101250.00;;;25.20
58929;BMP180;44713;53.378;10.022;2022-08-21T10:03:19;101244.00;;;25.40
58929;BMP180;44713;53.378;10.022;2022-08-21T10:05:58;101244.00;;;25.30
58929;BMP180;44713;53.378;10.022;2022-08-21T10:08:25;101241.00;;;25.00
58929;BMP180;44713;53.378;10.022;2022-08-21T10:10:55;101247.00;;;24.70
58929;BMP180;44713;53.378;10.022;2022-08-21T10:25:40;101246.00;;;24.40
58929;BMP180;44713;53.378;10.022;2022-08-21T10:28:05;101255.00;;;24.60
58929;BMP180;44713;53.378;10.022;2022-08-21T10:30:40;101265.00;;;24.60
58929;BMP180;44713;53.378;10.022;2022-08-21T10:33:16;101262.00;;;24.40
58929;BMP180;44713;53.378;10.022;2022-08-21T10:35:52;101250.00;;;24.50
58929;BMP180;44713;53.378;10.022;2022-08-21T10:41:28;101253.00;;;25.50
58929;BMP180;44713;53.378;10.022;2022-08-21T10:44:32;101261.00;;;25.80
58929;BMP180;44713;53.378;10.022;2022-08-21T10:47:08;101250.00;;;25.80
58929;BMP180;44713;53.378;10.022;2022-08-21T10:52:57;101248.00;;;26.00
58929;BMP180;44713;53.378;10.022;2022-08-21T10:55:31;101252.00;;;26.40
58929;BMP180;44713;53.378;10.022;2022-08-21T10:58:04;101248.00;;;26.50
58929;BMP180;44713;53.378;10.022;2022-08-21T11:00:38;101245.00;;;26.50
58929;BMP180;44713;53.378;10.022;2022-08-21T11:03:16;101250.00;;;26.70
58929;BMP180;44713;53.378;10.022;2022-08-21T11:05:48;101260.00;;;26.20
58929;BMP180;44713;53.378;10.022;2022-08-21T11:08:22;101251.00;;;26.20
58929;BMP180;44713;53.378;10.022;2022-08-21T11:11:05;101246.00;;;26.50
58929;BMP180;44713;53.378;10.022;2022-08-21T11:13:38;101245.00;;;26.40
58929;BMP180;44713;53.378;10.022;2022-08-21T11:16:41;101251.00;;;26.60
58929;BMP180;44713;53.378;10.022;2022-08-21T11:19:28;101245.00;;;27.00
58929;BMP180;44713;53.378;10.022;2022-08-21T11:22:00;101252.00;;;27.30
58929;BMP180;44713;53.378;10.022;2022-08-21T11:24:56;101252.00;;;27.40
58929;BMP180;44713;53.378;10.022;2022-08-21T11:27:36;101255.00;;;27.70
58929;BMP180;44713;53.378;10.022;2022-08-21T11:30:05;101248.00;;;27.70
58929;BMP180;44713;53.378;10.022;2022-08-21T11:32:36;101254.00;;;27.10
58929;BMP180;44713;53.378;10.022;2022-08-21T11:40:38;101258.00;;;27.50
58929;BMP180;44713;53.378;10.022;2022-08-21T11:54:44;101259.00;;;27.80
58929;BMP180;44713;53.378;10.022;2022-08-21T11:57:26;101276.00;;;27.90
58929;BMP180;44713;53.378;10.022;2022-08-21T12:02:50;101260.00;;;28.10
58929;BMP180;44713;53.378;10.022;2022-08-21T12:05:27;101260.00;;;28.60
58929;BMP180;44713;53.378;10.022;2022-08-21T12:08:06;101253.00;;;29.00
58929;BMP180;44713;53.378;10.022;2022-08-21T12:10:46;101252.00;;;28.60
58929;BMP180;44713;53.378;10.022;2022-08-21T12:13:38;101267.00;;;28.50
58929;BMP180;44713;53.378;10.022;2022-08-21T12:16:14;101260.00;;;28.00
58929;BMP180;44713;53.378;10.022;2022-08-21T12:18:40;101258.00;;;28.50
58929;BMP180;44713;53.378;10.022;2022-08-21T12:21:17;101255.00;;;29.00
58929;BMP180;44713;53.378;10.022;2022-08-21T12:23:46;101249.00;;;29.30
58929;BMP180;44713;53.378;10.022;2022-08-21T12:26:35;101258.00;;;28.70
58929;BMP180;44713;53.378;10.022;2022-08-21T12:29:09;101259.00;;;29.30
58929;BMP180;44713;53.378;10.022;2022-08-21T12:34:37;101259.00;;;29.20
58929;BMP180;44713;53.378;10.022;2022-08-21T12:37:09;101259.00;;;29.40
58929;BMP180;44713;53.378;10.022;2022-08-21T12:39:38;101275.00;;;28.00
58929;BMP180;44713;53.378;10.022;2022-08-21T12:42:19;101269.00;;;27.60
58929;BMP180;44713;53.378;10.022;2022-08-21T12:45:12;101260.00;;;27.30
58929;BMP180;44713;53.378;10.022;2022-08-21T12:47:55;101263.00;;;28.10
58929;BMP180;44713;53.378;10.022;2022-08-21T12:53:12;101271.00;;;28.30
58929;BMP180;44713;53.378;10.022;2022-08-21T12:55:41;101267.00;;;27.90
58929;BMP180;44713;53.378;10.022;2022-08-21T12:58:17;101264.00;;;27.40
58929;BMP180;44713;53.378;10.022;2022-08-21T13:00:49;101269.00;;;27.20
58929;BMP180;44713;53.378;10.022;2022-08-21T13:03:15;101261.00;;;27.40
58929;BMP180;44713;53.378;10.022;2022-08-21T13:05:41;101246.00;;;27.80
58929;BMP180;44713;53.378;10.022;2022-08-21T13:08:09;101250.00;;;28.20
58929;BMP180;44713;53.378;10.022;2022-08-21T13:10:36;101252.00;;;28.60
58929;BMP180;44713;53.378;10.022;2022-08-21T13:13:05;101253.00;;;28.60
58929;BMP180;44713;53.378;10.022;2022-08-21T13:15:35;101253.00;;;28.80
58929;BMP180;44713;53.378;10.022;2022-08-21T13:18:03;101245.00;;;29.30
58929;BMP180;44713;53.378;10.022;2022-08-21T13:20:38;101247.00;;;29.60
58929;BMP180;44713;53.378;10.022;2022-08-21T13:23:23;101248.00;;;29.00
58929;BMP180;44713;53.378;10.022;2022-08-21T13:25:49;101243.00;;;29.20
58929;BMP180;44713;53.378;10.022;2022-08-21T13:28:14;101242.00;;;29.80
58929;BMP180;44713;53.378;10.022;2022-08-21T13:30:48;101244.00;;;30.10
58929;BMP180;44713;53.378;10.022;2022-08-21T13:33:17;101247.00;;;29.90
58929;BMP180;44713;53.378;10.022;2022-08-21T13:38:25;101242.00;;;28.60
58929;BMP180;44713;53.378;10.022;2022-08-21T13:40:55;101251.00;;;27.90
58929;BMP180;44713;53.378;10.022;2022-08-21T13:43:32;101250.00;;;27.30
58929;BMP180;44713;53.378;10.022;2022-08-21T13:46:00;101247.00;;;27.20
58929;BMP180;44713;53.378;10.022;2022-08-21T13:48:28;101253.00;;;27.30
58929;BMP180;44713;53.378;10.022;2022-08-21T13:50:56;101244.00;;;28.10
58929;BMP180;44713;53.378;10.022;2022-08-21T13:53:28;101239.00;;;28.60
58929;BMP180;44713;53.378;10.022;2022-08-21T13:55:55;101245.00;;;28.60
58929;BMP180;44713;53.378;10.022;2022-08-21T14:00:59;101247.00;;;29.10
58929;BMP180;44713;53.378;10.022;2022-08-21T14:03:32;101241.00;;;29.10
58929;BMP180;44713;53.378;10.022;2022-08-21T14:05:58;101241.00;;;29.60
58929;BMP180;44713;53.378;10.022;2022-08-21T14:08:29;101250.00;;;29.30
58929;BMP180;44713;53.378;10.022;2022-08-21T14:10:56;101246.00;;;29.70
58929;BMP180;44713;53.378;10.022;2022-08-21T14:13:38;101248.00;;;29.40
58929;BMP180;44713;53.378;10.022;2022-08-21T14:16:20;101247.00;;;28.50
58929;BMP180;44713;53.378;10.022;2022-08-21T14:18:52;101252.00;;;28.10
58929;BMP180;44713;53.378;10.022;2022-08-21T14:21:30;101254.00;;;27.90
58929;BMP180;44713;53.378;10.022;2022-08-21T14:26:28;101259.00;;;26.90
58929;BMP180;44713;53.378;10.022;2022-08-21T14:28:59;101258.00;;;27.00
58929;BMP180;44713;53.378;10.022;2022-08-21T14:31:29;101255.00;;;26.90
58929;BMP180;44713;53.378;10.022;2022-08-21T14:33:55;101245.00;;;27.10
58929;BMP180;44713;53.378;10.022;2022-08-21T14:36:20;101241.00;;;27.80
58929;BMP180;44713;53.378;10.022;2022-08-21T14:38:46;101241.00;;;27.80
58929;BMP180;44713;53.378;10.022;2022-08-21T14:41:16;101236.00;;;27.80
58929;BMP180;44713;53.378;10.022;2022-08-21T14:43:43;101234.00;;;28.30
58929;BMP180;44713;53.378;10.022;2022-08-21T14:46:09;101238.00;;;28.80
58929;BMP180;44713;53.378;10.022;2022-08-21T14:48:36;101243.00;;;28.50
58929;BMP180;44713;53.378;10.022;2022-08-21T14:51:01;101245.00;;;28.50
58929;BMP180;44713;53.378;10.022;2022-08-21T14:53:26;101250.00;;;28.20
58929;BMP180;44713;53.378;10.022;2022-08-21T14:55:52;101253.00;;;28.60